createdAt,value
2018-11-07T00:00:18.474Z,11.85
2018-11-07T00:01:18.453Z,11.88
2018-11-07T00:02:18.435Z,11.88
2018-11-07T00:03:18.423Z,11.74
2018-11-07T00:04:18.408Z,11.84
2018-11-07T00:05:18.395Z,11.88
2018-11-07T00:06:18.367Z,11.84
2018-11-07T00:07:18.358Z,11.73
2018-11-07T00:08:18.540Z,11.76
2018-11-07T00:09:18.314Z,11.77
2018-11-07T00:10:18.298Z,11.85
2018-11-07T00:11:18.289Z,11.89
2018-11-07T00:12:18.266Z,11.93
2018-11-07T00:13:18.245Z,11.87
2018-11-07T00:14:18.229Z,11.93
2018-11-07T00:15:18.212Z,11.95
2018-11-07T00:16:18.194Z,11.95
2018-11-07T00:17:18.175Z,12.00
2018-11-07T00:18:18.166Z,12.03
2018-11-07T00:19:18.140Z,12.07
2018-11-07T00:20:18.180Z,12.07
2018-11-07T00:21:18.113Z,12.00
2018-11-07T00:22:18.088Z,12.00
2018-11-07T00:23:18.072Z,11.89
2018-11-07T00:24:18.058Z,11.79
2018-11-07T00:25:18.044Z,11.73
2018-11-07T00:26:18.037Z,11.74
2018-11-07T00:27:17.998Z,11.79
2018-11-07T00:28:17.984Z,11.73
2018-11-07T00:29:17.965Z,11.66
2018-11-07T00:30:17.990Z,11.76
2018-11-07T00:31:17.932Z,11.87
2018-11-07T00:32:17.922Z,11.85
2018-11-07T00:33:17.895Z,11.87
2018-11-07T00:34:17.878Z,11.69
2018-11-07T00:35:18.001Z,11.80
2018-11-07T00:36:17.844Z,11.85
2018-11-07T00:37:17.829Z,11.87
2018-11-07T00:38:17.806Z,11.87
2018-11-07T00:39:17.795Z,11.80
2018-11-07T00:40:17.785Z,11.87
2018-11-07T00:41:17.756Z,11.71
2018-11-07T00:42:17.764Z,11.85
2018-11-07T00:43:17.722Z,11.85
2018-11-07T00:44:17.704Z,11.76
2018-11-07T00:45:17.692Z,11.91
2018-11-07T00:46:17.673Z,11.87
2018-11-07T00:47:17.650Z,11.91
2018-11-07T00:48:17.635Z,11.87
2018-11-07T00:49:17.616Z,11.84
2018-11-07T00:50:17.599Z,11.87
2018-11-07T00:51:17.583Z,11.96
2018-11-07T00:52:17.569Z,11.96
2018-11-07T00:53:17.554Z,11.91
2018-11-07T00:54:17.527Z,11.96
2018-11-07T00:55:17.518Z,11.87
2018-11-07T00:56:17.493Z,11.91
2018-11-07T00:57:17.475Z,11.95
2018-11-07T00:58:17.460Z,12.00
2018-11-07T00:59:17.440Z,12.00
2018-11-07T01:00:17.425Z,11.96
2018-11-07T01:01:17.405Z,11.96
2018-11-07T01:02:17.395Z,11.93
2018-11-07T01:03:17.371Z,11.96
2018-11-07T01:04:17.354Z,11.97
2018-11-07T01:05:17.341Z,11.95
2018-11-07T01:06:17.318Z,11.82
2018-11-07T01:07:17.304Z,11.82
2018-11-07T01:08:17.287Z,11.88
2018-11-07T01:09:17.286Z,11.87
2018-11-07T01:10:17.248Z,11.84
2018-11-07T01:11:17.230Z,11.95
2018-11-07T01:12:17.214Z,11.95
2018-11-07T01:13:17.195Z,11.89
2018-11-07T01:14:17.178Z,11.96
2018-11-07T01:15:17.169Z,11.96
2018-11-07T01:16:17.147Z,11.84
2018-11-07T01:17:17.125Z,11.87
2018-11-07T01:18:17.110Z,11.88
2018-11-07T01:19:17.090Z,11.88
2018-11-07T01:20:17.075Z,11.89
2018-11-07T01:21:17.055Z,11.89
2018-11-07T01:22:17.093Z,11.74
2018-11-07T01:23:17.022Z,11.77
2018-11-07T01:24:17.008Z,11.74
2018-11-07T01:25:16.985Z,11.64
2018-11-07T01:26:16.966Z,11.59
2018-11-07T01:27:16.963Z,11.61
2018-11-07T01:28:17.017Z,11.61
2018-11-07T01:29:16.914Z,11.52
2018-11-07T01:30:16.902Z,11.59
2018-11-07T01:31:16.879Z,11.52
2018-11-07T01:32:16.862Z,11.51
2018-11-07T01:33:16.843Z,11.48
2018-11-07T01:34:16.827Z,11.48
2018-11-07T01:35:16.818Z,11.55
2018-11-07T01:36:16.793Z,11.45
2018-11-07T01:37:16.776Z,11.48
2018-11-07T01:38:16.756Z,11.36
2018-11-07T01:39:16.738Z,11.30
2018-11-07T01:40:16.721Z,11.25
2018-11-07T01:41:16.703Z,11.25
2018-11-07T01:42:16.693Z,11.22
2018-11-07T01:43:16.668Z,11.25
2018-11-07T01:44:16.654Z,11.25
2018-11-07T01:45:16.633Z,11.28
2018-11-07T01:46:16.614Z,11.33
2018-11-07T01:47:16.611Z,11.31
2018-11-07T01:48:16.579Z,11.40
2018-11-07T01:49:16.562Z,11.48
2018-11-07T01:50:16.545Z,11.54
2018-11-07T01:51:16.527Z,11.52
2018-11-07T01:52:16.509Z,11.46
2018-11-07T01:53:16.492Z,11.49
2018-11-07T01:54:16.479Z,11.51
2018-11-07T01:55:16.457Z,11.56
2018-11-07T01:56:16.441Z,11.59
2018-11-07T01:57:16.420Z,11.66
2018-11-07T01:58:16.411Z,11.64
2018-11-07T01:59:16.387Z,11.61
2018-11-07T02:00:16.371Z,11.71
2018-11-07T02:01:16.351Z,11.69
2018-11-07T02:02:16.335Z,11.74
2018-11-07T02:03:16.315Z,11.82
2018-11-07T02:04:16.298Z,11.88
2018-11-07T02:05:16.281Z,11.76
2018-11-07T02:06:16.266Z,11.77
2018-11-07T02:07:16.246Z,11.70
2018-11-07T02:08:16.227Z,11.70
2018-11-07T02:09:16.210Z,11.71
2018-11-07T02:10:16.197Z,11.74
2018-11-07T02:11:16.175Z,11.69
2018-11-07T02:12:16.154Z,11.67
2018-11-07T02:13:16.147Z,11.58
2018-11-07T02:14:16.129Z,11.61
2018-11-07T02:15:16.103Z,11.62
2018-11-07T02:16:16.086Z,11.59
2018-11-07T02:17:16.066Z,11.56
2018-11-07T02:18:16.051Z,11.61
2018-11-07T02:19:16.031Z,11.58
2018-11-07T02:20:16.010Z,11.61
2018-11-07T02:21:15.995Z,11.62
2018-11-07T02:22:15.974Z,11.74
2018-11-07T02:23:15.958Z,11.66
2018-11-07T02:24:15.940Z,11.71
2018-11-07T02:25:15.942Z,11.79
2018-11-07T02:26:15.955Z,11.70
2018-11-07T02:27:15.891Z,11.76
2018-11-07T02:28:15.883Z,11.71
2018-11-07T02:29:15.853Z,11.76
2018-11-07T02:30:15.835Z,11.87
2018-11-07T02:31:15.830Z,11.88
2018-11-07T02:32:15.801Z,11.89
2018-11-07T02:33:15.782Z,11.87
2018-11-07T02:34:15.767Z,11.73
2018-11-07T02:35:15.749Z,11.79
2018-11-07T02:36:15.736Z,11.79
2018-11-07T02:37:15.714Z,11.79
2018-11-07T02:38:15.702Z,11.80
2018-11-07T02:39:15.676Z,11.88
2018-11-07T02:40:15.660Z,11.85
2018-11-07T02:41:15.640Z,11.82
2018-11-07T02:42:15.622Z,11.79
2018-11-07T02:43:15.604Z,11.67
2018-11-07T02:44:15.586Z,11.66
2018-11-07T02:45:15.568Z,11.69
2018-11-07T02:46:15.552Z,11.69
2018-11-07T02:47:15.534Z,11.54
2018-11-07T02:48:15.517Z,11.54
2018-11-07T02:49:15.496Z,11.52
2018-11-07T02:50:15.485Z,11.43
2018-11-07T02:51:15.461Z,11.55
2018-11-07T02:52:15.447Z,11.54
2018-11-07T02:53:15.468Z,11.49
2018-11-07T02:54:15.410Z,11.49
2018-11-07T02:55:15.393Z,11.41
2018-11-07T02:56:15.384Z,11.43
2018-11-07T02:57:15.355Z,11.46
2018-11-07T02:58:15.340Z,11.51
2018-11-07T02:59:15.323Z,11.55
2018-11-07T03:00:15.305Z,11.55
2018-11-07T03:01:15.371Z,11.58
2018-11-07T03:02:15.272Z,11.56
2018-11-07T03:03:15.251Z,11.58
2018-11-07T03:04:15.234Z,11.62
2018-11-07T03:05:15.213Z,11.61
2018-11-07T03:06:15.202Z,11.70
2018-11-07T03:07:15.178Z,11.66
2018-11-07T03:08:15.162Z,11.69
2018-11-07T03:09:15.149Z,11.73
2018-11-07T03:10:15.183Z,11.71
2018-11-07T03:11:15.108Z,11.59
2018-11-07T03:12:15.094Z,11.56
2018-11-07T03:13:15.090Z,11.61
2018-11-07T03:14:15.060Z,11.54
2018-11-07T03:15:15.044Z,11.62
2018-11-07T03:16:15.022Z,11.58
2018-11-07T03:17:15.002Z,11.49
2018-11-07T03:18:14.992Z,11.52
2018-11-07T03:19:14.968Z,11.48
2018-11-07T03:20:14.949Z,11.52
2018-11-07T03:21:14.930Z,11.43
2018-11-07T03:22:14.911Z,11.40
2018-11-07T03:23:14.900Z,11.49
2018-11-07T03:24:14.878Z,11.46
2018-11-07T03:25:14.867Z,11.52
2018-11-07T03:26:14.842Z,11.45
2018-11-07T03:27:14.828Z,11.54
2018-11-07T03:28:14.805Z,11.52
2018-11-07T03:29:14.790Z,11.46
2018-11-07T03:30:14.773Z,11.55
2018-11-07T03:31:14.752Z,11.55
2018-11-07T03:32:14.734Z,11.59
2018-11-07T03:33:14.718Z,11.52
2018-11-07T03:34:14.698Z,11.56
2018-11-07T03:35:14.679Z,11.55
2018-11-07T03:36:14.661Z,11.55
2018-11-07T03:37:14.645Z,11.56
2018-11-07T03:38:14.630Z,11.59
2018-11-07T03:39:14.609Z,11.64
2018-11-07T03:40:14.593Z,11.69
2018-11-07T03:41:14.576Z,11.73
2018-11-07T03:42:14.558Z,11.73
2018-11-07T03:43:14.542Z,11.73
2018-11-07T03:44:14.520Z,11.73
2018-11-07T03:45:14.501Z,11.74
2018-11-07T03:46:14.483Z,11.62
2018-11-07T03:47:14.467Z,11.55
2018-11-07T03:48:14.450Z,11.46
2018-11-07T03:49:14.432Z,11.52
2018-11-07T03:50:14.416Z,11.54
2018-11-07T03:51:14.396Z,11.45
2018-11-07T03:52:14.377Z,11.54
2018-11-07T03:53:14.403Z,11.52
2018-11-07T03:54:14.346Z,11.49
2018-11-07T03:55:14.323Z,11.49
2018-11-07T03:56:14.319Z,11.46
2018-11-07T03:57:14.298Z,11.45
2018-11-07T03:58:14.273Z,11.51
2018-11-07T03:59:14.253Z,11.38
2018-11-07T04:00:14.237Z,11.40
2018-11-07T04:01:14.216Z,11.25
2018-11-07T04:02:14.202Z,11.27
2018-11-07T04:03:14.181Z,11.20
2018-11-07T04:04:14.164Z,11.05
2018-11-07T04:05:14.145Z,11.08
2018-11-07T04:06:14.128Z,11.04
2018-11-07T04:07:14.110Z,11.09
2018-11-07T04:08:14.095Z,11.05
2018-11-07T04:09:14.071Z,11.04
2018-11-07T04:10:14.059Z,11.09
2018-11-07T04:11:14.037Z,11.05
2018-11-07T04:12:14.021Z,11.08
2018-11-07T04:13:14.000Z,11.04
2018-11-07T04:14:13.984Z,11.03
2018-11-07T04:15:13.968Z,11.09
2018-11-07T04:16:13.953Z,11.04
2018-11-07T04:17:13.940Z,11.18
2018-11-07T04:18:13.912Z,11.11
2018-11-07T04:19:13.896Z,11.23
2018-11-07T04:20:13.879Z,11.22
2018-11-07T04:21:13.857Z,11.20
2018-11-07T04:22:13.853Z,11.23
2018-11-07T04:23:13.825Z,11.31
2018-11-07T04:24:13.806Z,11.33
2018-11-07T04:25:13.786Z,11.23
2018-11-07T04:26:13.769Z,11.22
2018-11-07T04:27:13.754Z,11.28
2018-11-07T04:28:13.732Z,11.22
2018-11-07T04:29:13.715Z,11.33
2018-11-07T04:30:13.694Z,11.28
2018-11-07T04:31:13.678Z,11.23
2018-11-07T04:32:13.671Z,11.25
2018-11-07T04:33:13.641Z,11.13
2018-11-07T04:34:13.629Z,11.15
2018-11-07T04:35:13.609Z,11.08
2018-11-07T04:36:13.593Z,11.03
2018-11-07T04:37:13.571Z,11.11
2018-11-07T04:38:13.552Z,11.13
2018-11-07T04:39:13.607Z,11.03
2018-11-07T04:40:13.516Z,11.09
2018-11-07T04:41:13.496Z,11.04
2018-11-07T04:42:13.480Z,11.00
2018-11-07T04:43:13.460Z,10.98
2018-11-07T04:44:13.444Z,10.98
2018-11-07T04:45:13.434Z,10.98
2018-11-07T04:46:13.409Z,10.98
2018-11-07T04:47:13.389Z,10.91
2018-11-07T04:48:13.374Z,10.85
2018-11-07T04:49:13.354Z,10.87
2018-11-07T04:50:13.337Z,10.90
2018-11-07T04:51:13.315Z,10.91
2018-11-07T04:52:13.297Z,10.87
2018-11-07T04:53:13.281Z,10.86
2018-11-07T04:54:13.265Z,10.83
2018-11-07T04:55:13.247Z,10.90
2018-11-07T04:56:13.223Z,10.90
2018-11-07T04:57:13.204Z,10.93
2018-11-07T04:58:13.191Z,10.93
2018-11-07T04:59:13.169Z,10.97
2018-11-07T05:00:13.205Z,11.03
2018-11-07T05:01:13.143Z,10.90
2018-11-07T05:02:13.115Z,10.94
2018-11-07T05:03:13.097Z,10.98
2018-11-07T05:04:13.081Z,11.09
2018-11-07T05:05:13.062Z,11.03
2018-11-07T05:06:13.050Z,11.00
2018-11-07T05:07:13.032Z,11.00
2018-11-07T05:08:13.008Z,11.00
2018-11-07T05:09:12.988Z,10.95
2018-11-07T05:10:12.972Z,11.00
2018-11-07T05:11:12.956Z,10.95
2018-11-07T05:12:12.934Z,10.87
2018-11-07T05:13:12.918Z,11.00
2018-11-07T05:14:12.897Z,10.98
2018-11-07T05:15:12.882Z,10.83
2018-11-07T05:16:12.862Z,10.75
2018-11-07T05:17:12.845Z,10.76
2018-11-07T05:18:12.833Z,10.70
2018-11-07T05:19:12.809Z,10.75
2018-11-07T05:20:12.791Z,10.78
2018-11-07T05:21:12.771Z,10.78
2018-11-07T05:22:12.753Z,10.70
2018-11-07T05:23:12.738Z,10.79
2018-11-07T05:24:12.719Z,10.76
2018-11-07T05:25:12.697Z,10.70
2018-11-07T05:26:12.733Z,10.72
2018-11-07T05:27:12.663Z,10.65
2018-11-07T05:28:12.643Z,10.67
2018-11-07T05:29:12.631Z,10.73
2018-11-07T05:30:12.607Z,10.76
2018-11-07T05:31:12.592Z,10.72
2018-11-07T05:32:12.572Z,10.67
2018-11-07T05:33:12.552Z,10.68
2018-11-07T05:34:12.534Z,10.65
2018-11-07T05:35:12.517Z,10.64
2018-11-07T05:36:12.497Z,10.60
2018-11-07T05:37:12.482Z,10.61
2018-11-07T05:38:12.458Z,10.64
2018-11-07T05:39:12.443Z,10.62
2018-11-07T05:40:12.425Z,10.62
2018-11-07T05:41:12.513Z,10.76
2018-11-07T05:42:12.385Z,10.68
2018-11-07T05:43:12.368Z,10.64
2018-11-07T05:44:12.350Z,10.65
2018-11-07T05:45:12.337Z,10.65
2018-11-07T05:46:12.313Z,10.62
2018-11-07T05:47:12.295Z,10.64
2018-11-07T05:48:12.277Z,10.61
2018-11-07T05:49:12.388Z,10.65
2018-11-07T05:50:12.239Z,10.64
2018-11-07T05:51:12.229Z,10.55
2018-11-07T05:52:12.203Z,10.52
2018-11-07T05:53:12.187Z,10.60
2018-11-07T05:54:12.165Z,10.46
2018-11-07T05:55:12.148Z,10.48
2018-11-07T05:56:12.129Z,10.65
2018-11-07T05:57:12.108Z,10.58
2018-11-07T05:58:12.089Z,10.57
2018-11-07T05:59:12.075Z,10.64
2018-11-07T06:00:12.060Z,10.68
2018-11-07T06:01:12.039Z,10.67
2018-11-07T06:02:12.018Z,10.78
2018-11-07T06:03:12.000Z,10.76
2018-11-07T06:04:11.994Z,10.83
2018-11-07T06:05:11.961Z,10.91
2018-11-07T06:06:11.942Z,10.94
2018-11-07T06:07:11.924Z,10.90
2018-11-07T06:08:11.911Z,11.03
2018-11-07T06:09:11.886Z,10.91
2018-11-07T06:10:11.873Z,11.03
2018-11-07T06:11:11.852Z,10.94
2018-11-07T06:12:11.834Z,10.87
2018-11-07T06:13:11.813Z,10.94
2018-11-07T06:14:11.796Z,10.86
2018-11-07T06:15:11.776Z,10.86
2018-11-07T06:16:11.881Z,10.90
2018-11-07T06:17:11.739Z,10.91
2018-11-07T06:18:11.724Z,10.90
2018-11-07T06:19:11.707Z,10.90
2018-11-07T06:20:11.694Z,10.80
2018-11-07T06:21:11.668Z,10.78
2018-11-07T06:22:11.651Z,10.80
2018-11-07T06:23:11.633Z,10.80
2018-11-07T06:24:11.669Z,10.86
2018-11-07T06:25:11.604Z,10.90
2018-11-07T06:26:11.579Z,10.86
2018-11-07T06:27:11.561Z,10.79
2018-11-07T06:28:11.543Z,10.87
2018-11-07T06:29:11.525Z,10.87
2018-11-07T06:30:11.509Z,10.91
2018-11-07T06:31:11.486Z,10.90
2018-11-07T06:32:11.468Z,10.86
2018-11-07T06:33:11.449Z,10.87
2018-11-07T06:34:11.608Z,10.90
2018-11-07T06:35:11.412Z,10.87
2018-11-07T06:36:11.397Z,10.98
2018-11-07T06:37:11.387Z,10.98
2018-11-07T06:38:11.360Z,10.97
2018-11-07T06:39:11.339Z,11.08
2018-11-07T06:40:11.326Z,11.04
2018-11-07T06:41:11.309Z,11.12
2018-11-07T06:42:11.287Z,11.16
2018-11-07T06:43:11.268Z,11.18
2018-11-07T06:44:11.254Z,11.23
2018-11-07T06:45:11.232Z,11.20
2018-11-07T06:46:11.217Z,11.23
2018-11-07T06:47:11.192Z,11.15
2018-11-07T06:48:11.175Z,11.20
2018-11-07T06:49:11.161Z,11.19
2018-11-07T06:50:11.142Z,11.09
2018-11-07T06:51:11.128Z,11.05
2018-11-07T06:52:11.102Z,11.03
2018-11-07T06:53:11.086Z,11.03
2018-11-07T06:54:11.076Z,11.03
2018-11-07T06:55:11.110Z,11.18
2018-11-07T06:56:11.030Z,11.22
2018-11-07T06:57:11.011Z,11.11
2018-11-07T06:58:10.994Z,11.22
2018-11-07T06:59:10.976Z,11.27
2018-11-07T07:00:10.958Z,11.25
2018-11-07T07:01:10.982Z,11.34
2018-11-07T07:02:10.924Z,11.28
2018-11-07T07:03:10.901Z,11.30
2018-11-07T07:04:10.888Z,11.37
2018-11-07T07:05:10.867Z,11.40
2018-11-07T07:06:10.848Z,11.45
2018-11-07T07:07:10.831Z,11.37
2018-11-07T07:08:10.817Z,11.40
2018-11-07T07:09:10.801Z,11.38
2018-11-07T07:10:10.786Z,11.41
2018-11-07T07:11:10.761Z,11.49
2018-11-07T07:12:10.745Z,11.38
2018-11-07T07:13:10.734Z,11.40
2018-11-07T07:14:10.708Z,11.43
2018-11-07T07:15:10.693Z,11.38
2018-11-07T07:16:10.673Z,11.52
2018-11-07T07:17:10.653Z,11.49
2018-11-07T07:18:10.705Z,11.51
2018-11-07T07:19:10.616Z,11.61
2018-11-07T07:20:10.599Z,11.49
2018-11-07T07:21:10.584Z,11.58
2018-11-07T07:22:10.563Z,11.59
2018-11-07T07:23:10.557Z,11.59
2018-11-07T07:24:10.533Z,11.56
2018-11-07T07:25:10.514Z,11.56
2018-11-07T07:26:10.502Z,11.58
2018-11-07T07:27:10.477Z,11.85
2018-11-07T07:28:10.461Z,12.63
2018-11-07T07:29:10.446Z,13.32
2018-11-07T07:30:10.480Z,14.03
2018-11-07T07:31:10.411Z,14.58
2018-11-07T07:32:10.392Z,14.92
2018-11-07T07:33:10.464Z,14.95
2018-11-07T07:34:10.364Z,15.01
2018-11-07T07:35:10.353Z,14.96
2018-11-07T07:36:10.333Z,15.07
2018-11-07T07:37:10.315Z,15.11
2018-11-07T07:38:10.301Z,15.23
2018-11-07T07:39:10.286Z,15.19
2018-11-07T07:40:10.279Z,15.08
2018-11-07T07:41:10.258Z,14.93
2018-11-07T07:42:10.246Z,14.37
2018-11-07T07:43:10.228Z,14.30
2018-11-07T07:44:10.213Z,14.11
2018-11-07T07:45:10.196Z,13.96
2018-11-07T07:46:10.184Z,14.18
2018-11-07T07:47:10.169Z,14.13
2018-11-07T07:48:10.156Z,14.33
2018-11-07T07:49:10.200Z,14.44
2018-11-07T07:50:10.128Z,14.66
2018-11-07T07:51:10.112Z,14.31
2018-11-07T07:52:10.107Z,14.16
2018-11-07T07:53:10.186Z,13.98
2018-11-07T07:54:10.067Z,13.58
2018-11-07T07:55:10.061Z,13.53
2018-11-07T07:56:10.039Z,13.47
2018-11-07T07:57:10.028Z,13.32
2018-11-07T07:58:10.011Z,13.24
2018-11-07T07:59:09.995Z,13.17
2018-11-07T08:00:09.988Z,13.19
2018-11-07T08:01:09.965Z,13.08
2018-11-07T08:02:09.950Z,12.96
2018-11-07T08:03:09.937Z,13.16
2018-11-07T08:04:09.921Z,13.42
2018-11-07T08:05:09.904Z,13.43
2018-11-07T08:06:09.887Z,13.45
2018-11-07T08:07:09.875Z,13.61
2018-11-07T08:08:09.865Z,13.64
2018-11-07T08:09:09.849Z,13.58
2018-11-07T08:10:09.839Z,13.46
2018-11-07T08:11:09.820Z,13.53
2018-11-07T08:12:09.806Z,13.54
2018-11-07T08:13:09.790Z,13.53
2018-11-07T08:14:09.822Z,13.91
2018-11-07T08:15:09.757Z,13.97
2018-11-07T08:16:09.747Z,13.96
2018-11-07T08:17:09.736Z,13.60
2018-11-07T08:18:09.710Z,13.36
2018-11-07T08:19:09.699Z,13.29
2018-11-07T08:20:09.680Z,13.55
2018-11-07T08:21:09.680Z,13.64
2018-11-07T08:22:09.660Z,13.82
2018-11-07T08:23:09.639Z,14.19
2018-11-07T08:24:09.624Z,14.41
2018-11-07T08:25:09.608Z,14.48
2018-11-07T08:26:09.598Z,14.89
2018-11-07T08:27:09.583Z,15.48
2018-11-07T08:28:09.569Z,16.21
2018-11-07T08:29:09.608Z,17.28
2018-11-07T08:30:09.549Z,18.01
2018-11-07T08:31:09.534Z,17.88
2018-11-07T08:32:09.520Z,18.30
2018-11-07T08:33:09.519Z,18.52
2018-11-07T08:34:09.499Z,18.26
2018-11-07T08:35:09.488Z,17.50
2018-11-07T08:36:09.482Z,16.95
2018-11-07T08:37:09.468Z,17.71
2018-11-07T08:38:09.458Z,17.53
2018-11-07T08:39:09.454Z,18.27
2018-11-07T08:40:09.444Z,18.81
2018-11-07T08:41:09.434Z,18.71
2018-11-07T08:42:09.470Z,19.08
2018-11-07T08:43:09.416Z,19.37
2018-11-07T08:44:09.409Z,18.93
2018-11-07T08:45:09.402Z,18.63
2018-11-07T08:46:09.396Z,19.31
2018-11-07T08:47:09.391Z,20.09
2018-11-07T08:48:09.468Z,20.26
2018-11-07T08:49:09.373Z,19.75
2018-11-07T08:50:09.367Z,19.50
2018-11-07T08:51:09.360Z,18.98
2018-11-07T08:52:09.356Z,19.39
2018-11-07T08:53:09.358Z,19.90
2018-11-07T08:54:09.347Z,19.99
2018-11-07T08:55:09.451Z,19.38
2018-11-07T08:56:09.337Z,18.96
2018-11-07T08:57:09.327Z,19.82
2018-11-07T08:58:09.324Z,19.84
2018-11-07T08:59:09.318Z,19.49
2018-11-07T09:00:09.322Z,19.56
2018-11-07T09:01:09.377Z,19.52
2018-11-07T09:02:09.376Z,19.34
2018-11-07T09:03:09.309Z,19.54
2018-11-07T09:04:09.294Z,20.07
2018-11-07T09:05:09.295Z,20.42
2018-11-07T09:06:09.287Z,20.63
2018-11-07T09:07:09.280Z,21.04
2018-11-07T09:08:09.282Z,21.38
2018-11-07T09:09:09.280Z,20.92
2018-11-07T09:10:09.271Z,20.77
2018-11-07T09:11:09.267Z,20.73
2018-11-07T09:12:09.359Z,20.95
2018-11-07T09:13:09.255Z,20.73
2018-11-07T09:14:09.251Z,20.49
2018-11-07T09:15:09.245Z,20.08
2018-11-07T09:16:09.242Z,19.53
2018-11-07T09:17:09.249Z,19.19
2018-11-07T09:18:09.233Z,19.44
2018-11-07T09:19:09.232Z,19.04
2018-11-07T09:20:09.230Z,19.27
2018-11-07T09:21:09.222Z,20.32
2018-11-07T09:22:09.224Z,19.52
2018-11-07T09:23:09.212Z,19.92
2018-11-07T09:24:09.213Z,20.52
2018-11-07T09:25:09.210Z,20.67
2018-11-07T09:26:09.203Z,19.84
2018-11-07T09:27:09.204Z,19.70
2018-11-07T09:28:09.191Z,18.94
2018-11-07T09:29:09.256Z,19.27
2018-11-07T09:30:09.181Z,19.78
2018-11-07T09:31:09.178Z,19.72
2018-11-07T09:32:09.173Z,19.64
2018-11-07T09:33:09.167Z,20.14
2018-11-07T09:34:09.168Z,20.37
2018-11-07T09:35:09.163Z,19.22
2018-11-07T09:36:09.154Z,19.31
2018-11-07T09:37:09.148Z,19.92
2018-11-07T09:38:09.139Z,19.75
2018-11-07T09:39:09.134Z,20.73
2018-11-07T09:40:09.131Z,20.92
2018-11-07T09:41:09.127Z,21.13
2018-11-07T09:42:09.117Z,21.47
2018-11-07T09:43:09.111Z,21.94
2018-11-07T09:44:09.112Z,22.30
2018-11-07T09:45:09.113Z,20.73
2018-11-07T09:46:09.103Z,20.44
2018-11-07T09:47:09.131Z,20.98
2018-11-07T09:48:09.156Z,21.37
2018-11-07T09:49:09.082Z,21.78
2018-11-07T09:50:09.080Z,21.19
2018-11-07T09:51:09.075Z,20.63
2018-11-07T09:52:09.072Z,19.89
2018-11-07T09:53:09.060Z,20.18
2018-11-07T09:54:09.097Z,19.47
2018-11-07T09:55:09.050Z,19.41
2018-11-07T09:56:09.046Z,19.86
2018-11-07T09:57:09.046Z,19.63
2018-11-07T09:58:09.034Z,19.77
2018-11-07T09:59:09.027Z,20.23
2018-11-07T10:00:09.024Z,20.23
2018-11-07T10:01:09.016Z,20.55
2018-11-07T10:02:09.011Z,21.41
2018-11-07T10:03:09.015Z,22.01
2018-11-07T10:04:09.003Z,20.92
2018-11-07T10:05:08.992Z,19.84
2018-11-07T10:06:08.990Z,19.41
2018-11-07T10:07:08.982Z,19.77
2018-11-07T10:08:08.974Z,19.49
2018-11-07T10:09:08.967Z,19.19
2018-11-07T10:10:09.035Z,19.27
2018-11-07T10:11:08.958Z,19.38
2018-11-07T10:12:08.950Z,19.44
2018-11-07T10:13:08.939Z,19.50
2018-11-07T10:14:08.930Z,19.39
2018-11-07T10:15:08.934Z,20.15
2018-11-07T10:16:08.915Z,20.29
2018-11-07T10:17:08.908Z,20.48
2018-11-07T10:18:08.904Z,21.11
2018-11-07T10:19:08.897Z,21.58
2018-11-07T10:20:08.896Z,21.58
2018-11-07T10:21:08.889Z,21.10
2018-11-07T10:22:08.883Z,21.56
2018-11-07T10:23:08.868Z,20.29
2018-11-07T10:24:08.861Z,20.37
2018-11-07T10:25:08.862Z,21.00
2018-11-07T10:26:08.866Z,21.11
2018-11-07T10:27:09.125Z,20.63
2018-11-07T10:28:09.214Z,20.82
2018-11-07T10:29:09.260Z,20.74
2018-11-07T10:30:09.138Z,20.93
2018-11-07T10:31:08.808Z,21.63
2018-11-07T10:32:08.811Z,22.33
2018-11-07T10:33:08.794Z,22.49
2018-11-07T10:34:08.790Z,22.13
2018-11-07T10:35:08.782Z,22.07
2018-11-07T10:36:08.778Z,21.98
2018-11-07T10:37:08.776Z,21.07
2018-11-07T10:38:08.963Z,20.89
2018-11-07T10:39:08.751Z,19.94
2018-11-07T10:40:08.747Z,20.73
2018-11-07T10:41:08.746Z,20.19
2018-11-07T10:42:08.731Z,20.19
2018-11-07T10:43:08.723Z,20.80
2018-11-07T10:44:08.733Z,21.51
2018-11-07T10:45:08.709Z,22.27
2018-11-07T10:46:08.850Z,22.12
2018-11-07T10:47:08.695Z,22.15
2018-11-07T10:48:08.685Z,21.08
2018-11-07T10:49:08.677Z,20.37
2018-11-07T10:50:08.678Z,20.17
2018-11-07T10:51:08.670Z,20.25
2018-11-07T10:52:08.677Z,20.18
2018-11-07T10:53:08.648Z,19.37
2018-11-07T10:54:08.638Z,19.41
2018-11-07T10:55:08.637Z,19.86
2018-11-07T10:56:08.622Z,19.41
2018-11-07T10:57:08.611Z,20.17
2018-11-07T10:58:08.606Z,20.75
2018-11-07T10:59:08.597Z,20.46
2018-11-07T11:00:08.591Z,20.71
2018-11-07T11:01:08.578Z,20.49
2018-11-07T11:02:08.570Z,20.74
2018-11-07T11:03:08.564Z,20.61
2018-11-07T11:04:08.552Z,20.95
2018-11-07T11:05:08.662Z,20.92
2018-11-07T11:06:08.538Z,21.55
2018-11-07T11:07:08.525Z,21.30
2018-11-07T11:08:08.530Z,21.11
2018-11-07T11:09:08.509Z,20.71
2018-11-07T11:10:08.500Z,21.08
2018-11-07T11:11:08.548Z,21.58
2018-11-07T11:12:08.483Z,22.07
2018-11-07T11:13:08.789Z,22.55
2018-11-07T11:14:08.792Z,22.78
2018-11-07T11:15:08.480Z,22.98
2018-11-07T11:16:08.465Z,22.55
2018-11-07T11:17:08.457Z,22.67
2018-11-07T11:18:08.431Z,23.11
2018-11-07T11:19:08.428Z,23.25
2018-11-07T11:20:08.732Z,22.00
2018-11-07T11:21:08.725Z,21.34
2018-11-07T11:22:08.402Z,20.73
2018-11-07T11:23:08.392Z,20.82
2018-11-07T11:24:08.387Z,20.74
2018-11-07T11:25:08.387Z,21.04
2018-11-07T11:26:08.377Z,21.30
2018-11-07T11:27:08.426Z,21.38
2018-11-07T11:28:08.378Z,21.20
2018-11-07T11:29:08.354Z,21.56
2018-11-07T11:30:08.335Z,21.90
2018-11-07T11:31:08.332Z,22.21
2018-11-07T11:32:08.315Z,21.85
2018-11-07T11:33:08.306Z,21.53
2018-11-07T11:34:08.443Z,21.32
2018-11-07T11:35:08.474Z,21.56
2018-11-07T11:36:08.310Z,21.71
2018-11-07T11:37:08.283Z,21.98
2018-11-07T11:38:08.263Z,22.21
2018-11-07T11:39:08.255Z,21.74
2018-11-07T11:40:08.255Z,22.11
2018-11-07T11:41:08.306Z,21.96
2018-11-07T11:42:08.236Z,21.40
2018-11-07T11:43:08.225Z,21.40
2018-11-07T11:44:08.215Z,21.85
2018-11-07T11:45:08.208Z,22.37
2018-11-07T11:46:08.197Z,21.48
2018-11-07T11:47:08.192Z,21.37
2018-11-07T11:48:08.183Z,21.73
2018-11-07T11:49:08.217Z,21.98
2018-11-07T11:50:08.168Z,21.63
2018-11-07T11:51:08.210Z,21.74
2018-11-07T11:52:08.148Z,22.12
2018-11-07T11:53:08.145Z,21.84
2018-11-07T11:54:08.129Z,21.59
2018-11-07T11:55:08.120Z,21.47
2018-11-07T11:56:08.115Z,21.11
2018-11-07T11:57:08.102Z,21.37
2018-11-07T11:58:08.093Z,21.34
2018-11-07T11:59:08.221Z,21.66
2018-11-07T12:00:08.509Z,21.40
2018-11-07T12:01:08.067Z,21.50
2018-11-07T12:02:08.154Z,21.97
2018-11-07T12:03:08.060Z,22.16
2018-11-07T12:04:08.043Z,21.34
2018-11-07T12:05:08.033Z,20.68
2018-11-07T12:06:08.021Z,20.65
2018-11-07T12:07:08.021Z,20.74
2018-11-07T12:08:08.052Z,20.63
2018-11-07T12:09:08.014Z,20.32
2018-11-07T12:10:07.995Z,20.34
2018-11-07T12:11:07.980Z,20.41
2018-11-07T12:12:08.041Z,20.68
2018-11-07T12:13:08.016Z,21.03
2018-11-07T12:14:07.951Z,21.05
2018-11-07T12:15:07.969Z,20.79
2018-11-07T12:16:07.928Z,20.88
2018-11-07T12:17:07.927Z,21.19
2018-11-07T12:18:07.914Z,21.10
2018-11-07T12:19:07.897Z,21.11
2018-11-07T12:20:07.893Z,21.10
2018-11-07T12:21:07.963Z,21.37
2018-11-07T12:22:07.878Z,21.65
2018-11-07T12:23:07.879Z,21.77
2018-11-07T12:24:07.854Z,22.25
2018-11-07T12:25:07.842Z,22.09
2018-11-07T12:26:07.830Z,22.28
2018-11-07T12:27:07.823Z,21.97
2018-11-07T12:28:07.809Z,22.12
2018-11-07T12:29:07.808Z,21.91
2018-11-07T12:30:07.833Z,22.16
2018-11-07T12:31:07.791Z,22.11
2018-11-07T12:32:07.772Z,21.43
2018-11-07T12:33:07.766Z,21.35
2018-11-07T12:34:07.763Z,21.03
2018-11-07T12:35:07.746Z,20.70
2018-11-07T12:36:07.800Z,20.74
2018-11-07T12:37:07.725Z,20.71
2018-11-07T12:38:07.717Z,20.90
2018-11-07T12:39:07.707Z,20.90
2018-11-07T12:40:07.698Z,20.95
2018-11-07T12:41:07.692Z,20.77
2018-11-07T12:42:07.680Z,20.55
2018-11-07T12:43:07.670Z,20.70
2018-11-07T12:44:07.658Z,20.74
2018-11-07T12:45:07.653Z,20.77
2018-11-07T12:46:07.635Z,20.75
2018-11-07T12:47:07.636Z,20.49
2018-11-07T12:48:07.624Z,20.32
2018-11-07T12:49:07.606Z,19.92
2018-11-07T12:50:07.751Z,19.99
2018-11-07T12:51:07.593Z,19.92
2018-11-07T12:52:07.578Z,20.11